createdAt,value
2023-01-25T00:02:45.243Z,0.40
2023-01-25T00:08:53.866Z,0.40
2023-01-25T00:14:56.063Z,0.40
2023-01-25T00:20:58.361Z,0.30
2023-01-25T00:27:00.730Z,0.20
2023-01-25T00:33:15.175Z,0.30
2023-01-25T00:39:17.415Z,0.30
2023-01-25T00:45:21.121Z,0.30
2023-01-25T00:51:24.012Z,0.40
2023-01-25T00:57:26.253Z,0.40
2023-01-25T01:03:28.383Z,0.40
2023-01-25T01:09:30.559Z,0.60
2023-01-25T01:15:37.003Z,0.60
2023-01-25T01:21:39.471Z,0.50
2023-01-25T01:27:41.456Z,0.60
2023-01-25T01:33:43.818Z,0.60
2023-01-25T01:39:45.951Z,0.70
2023-01-25T01:45:48.519Z,0.70
2023-01-25T01:52:03.386Z,0.70
2023-01-25T01:58:10.565Z,0.70
2023-01-25T02:04:14.543Z,0.70
2023-01-25T02:10:17.652Z,0.80
2023-01-25T02:16:25.816Z,0.80
2023-01-25T02:22:52.680Z,0.80
2023-01-25T02:29:01.237Z,0.80
2023-01-25T02:35:03.559Z,0.80
2023-01-25T02:41:34.428Z,0.80
2023-01-25T02:47:36.951Z,0.90
2023-01-25T02:53:39.563Z,0.90
2023-01-25T02:59:41.954Z,0.80
2023-01-25T03:05:44.859Z,0.80
2023-01-25T03:11:47.232Z,0.80
2023-01-25T03:17:51.023Z,0.90
2023-01-25T03:23:59.250Z,0.80
2023-01-25T03:30:06.970Z,0.90
2023-01-25T03:36:10.173Z,0.90
2023-01-25T03:42:13.744Z,0.90
2023-01-25T03:48:17.359Z,1.00
2023-01-25T03:54:20.132Z,0.90
2023-01-25T04:00:22.615Z,0.90
2023-01-25T04:06:33.748Z,0.90
2023-01-25T04:12:36.856Z,0.90
2023-01-25T04:18:40.293Z,0.90
2023-01-25T04:24:43.128Z,0.90
2023-01-25T04:30:45.487Z,0.90
2023-01-25T04:36:48.032Z,1.00
2023-01-25T04:42:50.246Z,1.00
2023-01-25T04:48:52.642Z,0.90
2023-01-25T04:54:54.788Z,0.90
2023-01-25T05:01:04.776Z,0.90
2023-01-25T05:07:07.897Z,0.80
2023-01-25T05:13:10.025Z,0.90
2023-01-25T05:19:13.616Z,0.90
2023-01-25T05:25:55.839Z,0.90
2023-01-25T05:32:06.630Z,0.90
2023-01-25T05:38:09.134Z,0.80
2023-01-25T05:44:11.545Z,0.80
2023-01-25T05:50:19.023Z,0.80
2023-01-25T05:56:34.502Z,0.80
2023-01-25T06:02:37.418Z,0.90
2023-01-25T06:08:40.008Z,0.90
2023-01-25T06:14:43.022Z,1.00
2023-01-25T06:20:45.193Z,1.00
2023-01-25T06:26:47.751Z,1.00
2023-01-25T06:32:50.689Z,1.00
2023-01-25T06:38:53.300Z,1.10
2023-01-25T06:44:55.348Z,1.10
2023-01-25T06:50:59.608Z,1.10
2023-01-25T06:57:01.960Z,1.20
2023-01-25T07:03:04.173Z,1.30
2023-01-25T07:09:13.121Z,1.20
2023-01-25T07:15:15.398Z,1.20
2023-01-25T07:21:22.859Z,1.20
2023-01-25T07:27:25.391Z,1.30
2023-01-25T07:33:28.024Z,1.40
2023-01-25T07:39:30.400Z,1.40
2023-01-25T07:45:32.972Z,1.50
2023-01-25T07:51:35.181Z,1.50
2023-01-25T07:57:37.453Z,1.40
2023-01-25T08:03:40.168Z,1.50
2023-01-25T08:09:42.893Z,1.60
2023-01-25T08:15:45.111Z,1.60
2023-01-25T08:21:47.238Z,1.50
2023-01-25T08:27:49.754Z,1.60
2023-01-25T08:33:52.421Z,1.50
2023-01-25T08:39:54.630Z,1.60
2023-01-25T08:45:58.101Z,1.60
2023-01-25T08:52:00.437Z,1.60
2023-01-25T08:58:02.583Z,1.60
2023-01-25T09:04:05.095Z,1.80
2023-01-25T09:10:10.527Z,2.00
2023-01-25T09:16:27.824Z,2.10
2023-01-25T09:22:31.730Z,2.00
2023-01-25T09:28:34.114Z,2.00
2023-01-25T09:34:36.979Z,2.10
2023-01-25T09:40:42.028Z,2.10
2023-01-25T09:46:49.743Z,2.40
2023-01-25T09:53:13.007Z,2.60
2023-01-25T09:59:17.809Z,2.70
2023-01-25T10:05:23.773Z,2.40
2023-01-25T10:11:33.546Z,2.30
2023-01-25T10:17:43.247Z,2.50
2023-01-25T10:24:04.884Z,2.60
2023-01-25T10:30:25.771Z,2.50
2023-01-25T10:36:31.367Z,2.60
2023-01-25T10:43:06.624Z,2.50
2023-01-25T10:49:42.814Z,2.80
2023-01-25T10:56:03.840Z,3.00
2023-01-25T11:02:37.135Z,3.10
2023-01-25T11:08:43.516Z,3.10
2023-01-25T11:14:50.234Z,3.10
2023-01-25T11:21:16.634Z,3.10
2023-01-25T11:27:28.845Z,3.20
2023-01-25T11:33:32.982Z,3.00
2023-01-25T11:40:02.882Z,2.90
2023-01-25T11:46:25.681Z,3.00
2023-01-25T11:52:30.477Z,3.00
2023-01-25T11:58:47.754Z,2.70
2023-01-25T12:05:21.502Z,2.60
2023-01-25T12:12:01.494Z,2.80
2023-01-25T12:18:09.520Z,3.00
2023-01-25T12:24:46.522Z,2.70
2023-01-25T12:31:00.916Z,2.60
2023-01-25T12:37:28.244Z,2.60
2023-01-25T12:43:38.506Z,2.40
2023-01-25T12:49:46.904Z,2.40
2023-01-25T12:55:50.141Z,2.20
2023-01-25T13:02:00.662Z,2.50
2023-01-25T13:08:31.392Z,2.50
2023-01-25T13:14:39.209Z,2.70
2023-01-25T13:20:41.338Z,2.70
2023-01-25T13:26:53.117Z,2.40
2023-01-25T13:32:58.965Z,2.30
2023-01-25T13:39:03.008Z,2.40
2023-01-25T13:45:20.894Z,2.30
2023-01-25T13:51:23.816Z,2.30
2023-01-25T13:57:29.551Z,2.20
2023-01-25T14:03:36.979Z,2.20
2023-01-25T14:09:43.650Z,2.20
2023-01-25T14:15:54.768Z,2.10
2023-01-25T14:22:21.406Z,2.00
2023-01-25T14:28:23.787Z,1.80
2023-01-25T14:34:27.125Z,1.80
2023-01-25T14:40:31.760Z,1.90
2023-01-25T14:46:37.389Z,1.80
2023-01-25T14:52:40.862Z,1.70
2023-01-25T14:58:43.179Z,1.70
2023-01-25T15:05:14.640Z,1.60
2023-01-25T15:11:49.331Z,1.70
2023-01-25T15:17:51.883Z,1.60
2023-01-25T15:23:56.078Z,1.50
2023-01-25T15:29:59.839Z,1.50
2023-01-25T15:36:01.989Z,1.50
2023-01-25T15:42:04.355Z,1.40
2023-01-25T15:48:06.592Z,1.40
2023-01-25T15:54:09.632Z,1.40
2023-01-25T16:00:23.512Z,1.50
2023-01-25T16:06:48.762Z,1.50
2023-01-25T16:12:51.444Z,1.50
2023-01-25T16:18:54.018Z,1.50
2023-01-25T16:24:56.282Z,1.50
2023-01-25T16:31:02.092Z,1.50
2023-01-25T16:37:04.555Z,1.40
2023-01-25T16:43:06.934Z,1.50
2023-01-25T16:49:18.828Z,1.40
2023-01-25T16:55:21.218Z,1.30
2023-01-25T17:01:24.479Z,1.20
2023-01-25T17:07:26.628Z,1.20
2023-01-25T17:13:29.154Z,1.10
2023-01-25T17:19:31.636Z,1.20
2023-01-25T17:25:35.799Z,1.20
2023-01-25T17:31:40.093Z,1.30
2023-01-25T17:37:42.293Z,1.30
2023-01-25T17:43:44.560Z,1.30
2023-01-25T17:49:46.880Z,1.20
2023-01-25T17:55:48.934Z,1.30
2023-01-25T18:01:51.265Z,1.20
2023-01-25T18:07:53.573Z,1.10
2023-01-25T18:13:57.049Z,1.10
2023-01-25T18:19:59.512Z,1.10
2023-01-25T18:26:01.915Z,1.10
2023-01-25T18:32:05.104Z,1.10
2023-01-25T18:38:08.800Z,1.10
2023-01-25T18:44:11.312Z,1.20
2023-01-25T18:50:16.690Z,1.20
2023-01-25T18:56:21.366Z,1.20
2023-01-25T19:02:24.017Z,1.20
2023-01-25T19:08:27.427Z,1.10
2023-01-25T19:14:30.903Z,1.20
2023-01-25T19:20:33.068Z,1.10
2023-01-25T19:26:35.240Z,1.10
2023-01-25T19:32:37.531Z,1.10
2023-01-25T19:38:40.553Z,1.10
2023-01-25T19:44:42.961Z,1.00
2023-01-25T19:50:45.217Z,1.00
2023-01-25T19:56:49.500Z,1.10
2023-01-25T20:02:51.800Z,1.10
2023-01-25T20:08:54.745Z,1.00
2023-01-25T20:14:57.488Z,1.00
2023-01-25T20:21:08.424Z,1.00
2023-01-25T20:27:10.666Z,1.00
2023-01-25T20:33:13.367Z,1.00
2023-01-25T20:39:23.062Z,0.90
2023-01-25T20:45:25.286Z,0.80
2023-01-25T20:51:27.686Z,0.90
2023-01-25T20:57:29.665Z,0.80
2023-01-25T21:03:31.774Z,0.90
2023-01-25T21:09:34.340Z,0.90
2023-01-25T21:15:37.817Z,0.90
2023-01-25T21:21:40.036Z,0.90
2023-01-25T21:27:42.449Z,0.80
2023-01-25T21:33:44.849Z,0.90
2023-01-25T21:39:46.854Z,0.90
2023-01-25T21:46:07.469Z,0.90
2023-01-25T21:52:09.692Z,0.90
2023-01-25T21:58:11.855Z,0.90
2023-01-25T22:04:15.822Z,0.90
2023-01-25T22:10:18.691Z,0.90
2023-01-25T22:16:22.418Z,0.80
2023-01-25T22:22:25.006Z,0.80
2023-01-25T22:28:27.555Z,0.80
2023-01-25T22:34:29.792Z,0.80
2023-01-25T22:40:32.033Z,0.90
2023-01-25T22:46:34.601Z,0.90
2023-01-25T22:52:37.148Z,0.90
2023-01-25T22:58:39.976Z,0.90
2023-01-25T23:04:42.224Z,0.90
2023-01-25T23:10:44.500Z,0.90
2023-01-25T23:16:47.441Z,0.90
2023-01-25T23:22:51.219Z,0.80
2023-01-25T23:28:55.358Z,0.80
2023-01-25T23:34:57.687Z,0.80
2023-01-25T23:41:01.621Z,0.70
2023-01-25T23:47:03.922Z,0.70
2023-01-25T23:53:06.330Z,0.70
2023-01-25T23:59:08.509Z,0.70
